Avery Island, LA

10:31 CDT le 17 septembre 2014 (GMT -0500)
Acadiana Regional | Change Station
CLOSE
Current Station
Aéroport
Location: New Iberia,
Altitude: 23 ft
Stations météo à proximité

Alt. 23 ft 30.04 °N, 91.88 °W | Updated 38 minutes ago

Ciel dégagé
Ciel dégagé
81 ° F
Paraît 86 ° F
N
5
Vent Variable Vent de ESE

Aujourd'hui
Haut(e) -- | Bas -- ° F
--% Risque de précip.
Hier
Haut(e) -- | Bas -- ° F
Precip. -- pouce
6:53 AM 7:10 PM
Lune descendante, 35% visible
Pression 30.00 pouce
Visibilité 10.0 Miles terrestres
Nuages Ciel dégagé
indice de chaleur 86 ° F
Point de rosée 73 ° F
Humidité 77%
Précipitations 0.00 pouce
Profondeur de la couche neigeuse Non disponible.
UV 5 sur 12
Pollen 9.40 sur 12
Qualité de l'air Non disponible.
Flu Activity Non disponible.
METAR KARA 171453Z 11004KT 10SM CLR 27/23 A3000 RMK AO2 SLP157 T02720228 53007

More Conditions Fewer Conditions

Pression 30.00 pouce
Visibilité 10.0 Miles terrestres
Nuages Ciel dégagé
indice de chaleur 86 ° F
Point de rosée 73 ° F
Humidité 77%
Précipitations 0.00 pouce
Profondeur de la couche neigeuse Non disponible.
UV 5 sur 12
Pollen 9.40 sur 12
Qualité de l'air Non disponible.
Flu Activity Non disponible.
METAR KARA 171453Z 11004KT 10SM CLR 27/23 A3000 RMK AO2 SLP157 T02720228 53007

More Conditions Fewer Conditions

10-Day Weather Forecast

Almanac

Astronomie

Sep. 17, 2014 Lever Coucher
Temps réel 06:53 CDT 19:10 CDT
Crépuscule civil 06:29 CDT 19:34 CDT
Crépuscule nautique 06:01 CDT 20:02 CDT
Crépuscule astronomique 05:32 CDT 20:30 CDT
Lune 01:11 CDT 15:03 CDT
Durée de lumière visible 13h 05m
Longueur du jour
12h 17m
Tomorrow will be 1m 47s shorter.
Lune descendante, 35% of the Moon is Illuminated
Aujourd'hui
Lune descendante
Sep 24
Nouveau
Oct 1
Premier quartier
Oct 8
Pleine lune
Oct 15
Dernier quartier

Extrêmes aujourd'hui

State Highs State Lows

Community

WunderPhotos

Upload Photos

1,754,068 Photos téléchargées !

WunderBlogs® & News

Nearby

Épaisseur de neige

Station Depth Altitude
Pas de nouvelles chutes de neige

Activité sismique

Ville Distance Mag. Time & Date
No recent earthquake activity has been reported nearby.
Minimum magnitude displayed is 2.5.

Températures des eaux côtières

Lieu Température
Fresh Water Canal Locks, LA 82.9 ° F
Amerada Pass, LA 82.9 ° F

Stations météo à proximité